| Date | Time | Temp. (oF) | Dew Point (oF) | Rel. Hum. (%) | Press. (in.) | Wind Dir. (deg.) | Wind Speed (mph) | Hourly Rainfall (i n.) |
|
|---|---|---|---|---|---|---|---|---|---|
| 1 | 12/11 | 24:00 | 38 | 23 | 55 | 30.05 | 340 | 14 | 0.00 |
| 2 | 12/10 | 23:00 | 39 | 23 | 54 | 30.05 | 260 | 12 | 0.00 |
| 3 | 12/10 | 22:00 | 39 | 24 | 56 | 30.06 | 300 | 10 | 0.00 |
| 4 | 12/10 | 21:00 | 42 | 29 | 62 | 30.02 | 330 | 12 | 0.00 |
| 5 | 12/10 | 20:00 | 44 | 32 | 63 | 29.98 | 270 | 11 | 0.00 |
| 6 | 12/10 | 19:00 | 49 | 46 | 92 | 29.94 | 320 | 11 | 0.00 |
| 7 | 12/10 | 18:00 | 50 | 48 | 94 | 29.89 | 290 | 0 | 0.00 |
| 8 | 12/10 | 17:00 | 52 | 50 | 94 | 29.88 | 290 | 4 | 0.00 |
| 9 | 12/10 | 16:00 | 51 | 49 | 93 | 29.87 | 350 | 2 | 0.00 |
| 10 | 12/10 | 15:00 | 51 | 49 | 94 | 29.85 | 160 | 4 | 0.01 |
| 11 | 12/10 | 14:00 | 51 | 49 | 94 | 29.87 | 180 | 6 | 0.02 |
| 12 | 12/10 | 13:00 | 49 | 47 | 95 | 29.91 | 210 | 7 | 0.08 |
| 13 | 12/10 | 12:00 | 47 | 44 | 90 | 29.96 | 140 | 1 | 0.16 |
| 14 | 12/10 | 11:00 | 45 | 41 | 88 | 30.00 | 140 | 1 | 0.07 |
| 15 | 12/10 | 10:00 | 44 | 39 | 85 | 30.03 | 130 | 2 | 0.02 |
| 16 | 12/10 | 09:00 | 42 | 36 | 81 | 30.03 | 150 | 0 | 0.00 |
| 17 | 12/10 | 08:00 | 37 | 32 | 85 | 30.05 | 150 | 0 | 0.00 |
| 18 | 12/10 | 07:00 | 36 | 31 | 84 | 30.08 | 150 | 0 | 0.00 |
| 19 | 12/10 | 06:00 | 35 | 31 | 86 | 30.10 | 150 | 0 | 0.00 |
| 20 | 12/10 | 05:00 | 35 | 30 | 84 | 30.13 | 150 | 1 | 0.00 |
| 21 | 12/10 | 04:00 | 38 | 33 | 83 | 30.15 | 150 | 0 | 0.00 |
| 22 | 12/10 | 03:00 | 39 | 33 | 81 | 30.20 | 150 | 0 | 0.00 |
| 23 | 12/10 | 02:00 | 38 | 32 | 81 | 30.21 | 150 | 0 | 0.00 |
| 24 | 12/10 | 01:00 | 40 | 34 | 80 | 30.22 | 150 | 0 | 0.00 |